Time;durP1;ratioP1;P1;durP2;ratioP2;P2;SDS_P1;SDS_P2;PMS_P1;PMS_P2;Temp;Humidity;BMP_temperature;BMP_pressure;BME280_temperature;BME280_humidity;BME280_pressure;Samples;Min_cycle;Max_cycle;Signal;HPM_P1;HPM_P2
2021/09/07 00:00:22;;;;;;;17.75;15.85;;;14.60;99.90;;;;;;5037034;28;20210;-68
2021/09/07 00:02:49;;;;;;;16.98;15.27;;;14.70;99.90;;;;;;5029599;28;21121;-68
2021/09/07 00:05:17;;;;;;;18.17;16.27;;;14.60;99.90;;;;;;5029435;28;20681;-68
2021/09/07 00:07:44;;;;;;;16.70;14.95;;;14.60;99.90;;;;;;5029748;28;20936;-68
2021/09/07 00:10:13;;;;;;;16.85;15.27;;;14.60;99.90;;;;;;5047500;28;20301;-68
2021/09/07 00:12:43;;;;;;;17.52;15.73;;;14.60;99.90;;;;;;5049327;28;20240;-68
2021/09/07 00:15:13;;;;;;;17.90;15.25;;;14.60;99.90;;;;;;5049688;28;20212;-68
2021/09/07 00:17:41;;;;;;;18.60;16.90;;;14.50;99.90;;;;;;5034084;28;20574;-68
2021/09/07 00:20:09;;;;;;;18.42;16.27;;;14.50;99.90;;;;;;5049025;28;20206;-69
2021/09/07 00:22:37;;;;;;;17.83;16.02;;;14.50;99.90;;;;;;5049308;28;20216;-68
2021/09/07 00:25:05;;;;;;;19.50;15.95;;;14.30;99.90;;;;;;5048924;28;20217;-69
2021/09/07 00:27:32;;;;;;;17.58;15.77;;;14.30;99.90;;;;;;5047033;28;20201;-69
2021/09/07 00:29:59;;;;;;;18.67;16.67;;;14.40;99.90;;;;;;5048385;28;20224;-69
2021/09/07 00:32:26;;;;;;;17.42;15.73;;;14.40;99.90;;;;;;5048976;28;20328;-69
2021/09/07 00:34:53;;;;;;;18.02;16.20;;;14.30;99.90;;;;;;5032230;28;20210;-68
2021/09/07 00:37:20;;;;;;;17.27;15.48;;;14.20;99.90;;;;;;5028356;28;20691;-70
2021/09/07 00:39:48;;;;;;;18.88;16.92;;;14.00;99.90;;;;;;5028984;28;20217;-68
2021/09/07 00:42:15;;;;;;;18.33;16.52;;;13.90;99.90;;;;;;5028246;28;20305;-69
2021/09/07 00:44:42;;;;;;;16.83;15.10;;;13.80;99.90;;;;;;5028777;28;20202;-68
2021/09/07 00:47:09;;;;;;;18.85;17.05;;;13.70;99.90;;;;;;5028026;28;20293;-69
2021/09/07 00:49:37;;;;;;;18.08;16.25;;;13.70;99.90;;;;;;5028648;28;20241;-69
2021/09/07 00:52:05;;;;;;;20.75;15.82;;;13.60;99.90;;;;;;5046250;28;20235;-68
2021/09/07 00:54:35;;;;;;;16.27;14.57;;;13.50;99.90;;;;;;5048503;28;20292;-69
2021/09/07 00:57:06;;;;;;;20.05;18.05;;;13.40;99.90;;;;;;5042365;28;20985;-69
2021/09/07 00:59:34;;;;;;;19.15;16.95;;;13.40;99.90;;;;;;5028513;28;20213;-68
2021/09/07 01:02:03;;;;;;;18.90;17.00;;;13.30;99.90;;;;;;5028340;28;20849;-69
2021/09/07 01:04:32;;;;;;;16.92;15.15;;;13.30;99.90;;;;;;5028608;28;20293;-69
2021/09/07 01:07:00;;;;;;;18.58;16.77;;;13.30;99.90;;;;;;5029608;28;20206;-69
2021/09/07 01:09:27;;;;;;;18.80;16.92;;;13.30;99.90;;;;;;5047951;28;20206;-69
2021/09/07 01:11:54;;;;;;;18.20;16.40;;;13.20;99.90;;;;;;5047418;28;20323;-68
2021/09/07 01:14:30;;;;;;;19.23;17.33;;;13.20;99.90;;;;;;5048449;28;20674;-69
2021/09/07 01:16:56;;;;;;;19.92;17.75;;;13.10;99.90;;;;;;5042736;28;20687;-69
2021/09/07 01:19:24;;;;;;;20.67;17.15;;;13.10;99.90;;;;;;5031913;28;20213;-68
2021/09/07 01:21:51;;;;;;;18.45;16.52;;;13.10;99.90;;;;;;5047602;28;20206;-68
2021/09/07 01:24:21;;;;;;;24.13;17.23;;;13.10;99.90;;;;;;5044671;28;20202;-69
2021/09/07 01:26:48;;;;;;;22.30;17.00;;;13.00;99.90;;;;;;5030268;28;20284;-69
2021/09/07 01:29:15;;;;;;;18.60;16.65;;;13.00;99.90;;;;;;5046669;28;20989;-69
2021/09/07 01:31:42;;;;;;;19.30;17.27;;;13.00;99.90;;;;;;5047183;28;20236;-68
2021/09/07 01:34:09;;;;;;;19.65;16.70;;;12.90;99.90;;;;;;5047450;28;20248;-69
2021/09/07 01:36:36;;;;;;;19.77;17.35;;;12.90;99.90;;;;;;5045968;28;20305;-69
2021/09/07 01:39:03;;;;;;;18.73;16.77;;;12.90;99.90;;;;;;5027131;28;20213;-68
2021/09/07 01:41:31;;;;;;;18.83;16.90;;;13.00;99.90;;;;;;5032705;28;20573;-69
2021/09/07 01:43:58;;;;;;;18.83;16.58;;;13.10;99.90;;;;;;5047938;28;20831;-69
2021/09/07 01:46:24;;;;;;;18.80;16.90;;;12.90;99.90;;;;;;5047012;28;20298;-68
2021/09/07 01:48:51;;;;;;;18.92;16.98;;;12.90;99.90;;;;;;5045925;28;20209;-68
2021/09/07 01:51:18;;;;;;;21.02;17.92;;;12.80;99.90;;;;;;5047659;28;20190;-68
2021/09/07 01:53:45;;;;;;;20.83;17.17;;;12.80;99.90;;;;;;5046477;28;20206;-69
2021/09/07 01:56:12;;;;;;;20.92;18.40;;;12.80;99.90;;;;;;5047576;28;20293;-69
2021/09/07 01:58:40;;;;;;;20.40;16.67;;;12.80;99.90;;;;;;5034186;28;20210;-69
2021/09/07 02:01:07;;;;;;;19.45;17.05;;;12.80;99.90;;;;;;5047181;28;20285;-69
2021/09/07 02:03:34;;;;;;;20.17;18.15;;;12.70;99.90;;;;;;5047319;28;20201;-68
2021/09/07 02:06:01;;;;;;;19.08;17.17;;;12.70;99.90;;;;;;5047262;28;20296;-69
2021/09/07 02:08:28;;;;;;;18.48;16.45;;;12.60;99.90;;;;;;5029805;28;20212;-68
2021/09/07 02:10:54;;;;;;;20.58;17.65;;;12.60;99.90;;;;;;5027326;28;20225;-69
2021/09/07 02:13:21;;;;;;;18.90;17.00;;;12.50;99.90;;;;;;5027271;28;20240;-68
2021/09/07 02:15:49;;;;;;;22.08;17.85;;;12.50;99.90;;;;;;5034358;28;20297;-69
2021/09/07 02:18:16;;;;;;;19.23;17.17;;;12.40;99.90;;;;;;5032242;28;20213;-68
2021/09/07 02:20:43;;;;;;;20.15;18.15;;;12.40;99.90;;;;;;5041758;28;20231;-70
2021/09/07 02:23:10;;;;;;;20.15;17.42;;;12.40;99.90;;;;;;5046996;28;20296;-68
2021/09/07 02:25:36;;;;;;;19.65;17.60;;;12.40;99.90;;;;;;5037308;28;20293;-68
2021/09/07 02:28:03;;;;;;;20.15;18.08;;;12.30;99.90;;;;;;5041241;28;20588;-69
2021/09/07 02:30:31;;;;;;;21.40;17.45;;;12.20;99.90;;;;;;5046741;28;20811;-68
2021/09/07 02:33:00;;;;;;;20.60;17.58;;;12.20;99.90;;;;;;5038326;28;20240;-68
2021/09/07 02:35:28;;;;;;;23.95;20.48;;;12.20;99.90;;;;;;5026483;28;20637;-68
2021/09/07 02:37:55;;;;;;;20.95;18.38;;;12.20;99.90;;;;;;5026677;28;20289;-68
2021/09/07 02:40:22;;;;;;;21.58;18.90;;;12.30;99.90;;;;;;5026397;28;20381;-68
2021/09/07 02:42:49;;;;;;;26.30;19.45;;;12.20;99.90;;;;;;5026915;28;20357;-68
2021/09/07 02:45:16;;;;;;;21.52;18.83;;;12.20;99.90;;;;;;5025950;28;20210;-68
2021/09/07 02:47:43;;;;;;;21.52;19.23;;;12.10;99.90;;;;;;5034522;28;20655;-68
2021/09/07 02:50:14;;;;;;;20.70;18.50;;;12.10;99.90;;;;;;5035746;28;20218;-68
2021/09/07 02:52:41;;;;;;;21.85;18.98;;;12.20;99.90;;;;;;5032409;28;20238;-68
2021/09/07 02:55:09;;;;;;;22.73;20.25;;;12.10;99.90;;;;;;5026743;28;20934;-68
2021/09/07 02:57:36;;;;;;;21.67;18.67;;;12.10;99.90;;;;;;5026295;28;20214;-68
2021/09/07 03:00:04;;;;;;;21.98;19.40;;;12.20;99.90;;;;;;5026167;28;20202;-68
2021/09/07 03:02:30;;;;;;;21.75;19.45;;;12.30;99.90;;;;;;5026810;28;20209;-68
2021/09/07 03:04:57;;;;;;;23.90;20.25;;;12.30;99.90;;;;;;5026456;28;20678;-68
2021/09/07 03:07:25;;;;;;;21.75;19.42;;;12.30;99.90;;;;;;5031637;28;20199;-68
2021/09/07 03:09:53;;;;;;;21.05;18.95;;;12.20;99.90;;;;;;5025990;28;20285;-68
2021/09/07 03:12:20;;;;;;;21.58;19.00;;;12.30;99.90;;;;;;5026399;28;20763;-68
2021/09/07 03:14:49;;;;;;;20.80;18.45;;;12.30;99.90;;;;;;5026380;28;20297;-68
2021/09/07 03:17:16;;;;;;;21.45;19.15;;;12.20;99.90;;;;;;5025749;28;20285;-68
2021/09/07 03:19:43;;;;;;;23.40;18.13;;;12.20;99.90;;;;;;5032303;28;20205;-68
2021/09/07 03:22:12;;;;;;;21.55;18.35;;;12.10;99.90;;;;;;5046345;28;20209;-68
2021/09/07 03:24:40;;;;;;;22.48;19.85;;;12.10;99.90;;;;;;5031721;28;20298;-68
2021/09/07 03:27:07;;;;;;;20.58;18.40;;;12.10;99.90;;;;;;5027053;28;20709;-68
2021/09/07 03:29:34;;;;;;;20.13;17.92;;;12.00;99.90;;;;;;5045576;28;20293;-68
2021/09/07 03:32:01;;;;;;;20.42;18.23;;;12.00;99.90;;;;;;5045320;28;20237;-67
2021/09/07 03:34:28;;;;;;;21.85;19.45;;;12.00;99.90;;;;;;5046235;28;20619;-68
2021/09/07 03:36:54;;;;;;;23.70;17.73;;;12.00;99.90;;;;;;5043455;28;20729;-68
2021/09/07 03:39:21;;;;;;;22.30;19.10;;;12.00;99.90;;;;;;5025786;28;20207;-67
2021/09/07 03:41:49;;;;;;;21.80;19.50;;;11.90;99.90;;;;;;5041748;28;20241;-68
2021/09/07 03:44:16;;;;;;;20.25;18.08;;;11.90;99.90;;;;;;5046104;28;20748;-68
2021/09/07 03:46:43;;;;;;;21.10;18.90;;;11.80;99.90;;;;;;5046160;28;20210;-67
2021/09/07 03:49:10;;;;;;;22.42;18.90;;;11.80;99.90;;;;;;5045108;28;20206;-67
2021/09/07 03:51:37;;;;;;;21.73;19.48;;;11.80;99.90;;;;;;5045893;28;20212;-68
2021/09/07 03:54:03;;;;;;;24.77;18.73;;;11.70;99.90;;;;;;5046122;28;20233;-68
2021/09/07 03:56:30;;;;;;;21.42;19.13;;;11.80;99.90;;;;;;5046142;28;20217;-68
2021/09/07 03:58:59;;;;;;;21.98;18.98;;;11.90;99.90;;;;;;5027574;28;20206;-67
2021/09/07 04:01:25;;;;;;;21.00;18.00;;;11.90;99.90;;;;;;5026112;28;20770;-68
2021/09/07 04:03:52;;;;;;;22.17;19.77;;;11.90;99.90;;;;;;5025875;28;20196;-68
2021/09/07 04:06:19;;;;;;;20.10;18.00;;;11.70;99.90;;;;;;5025986;28;20233;-68
2021/09/07 04:08:46;;;;;;;20.77;18.58;;;11.70;99.90;;;;;;5026271;28;20220;-68
2021/09/07 04:11:13;;;;;;;22.05;18.23;;;11.70;99.90;;;;;;5026154;28;20227;-68
2021/09/07 04:13:40;;;;;;;19.88;17.77;;;11.70;99.90;;;;;;5026030;28;20246;-68
2021/09/07 04:16:08;;;;;;;20.55;18.17;;;11.60;99.90;;;;;;5044403;28;20726;-68
2021/09/07 04:18:35;;;;;;;21.80;18.60;;;11.60;99.90;;;;;;5034370;28;20786;-68
2021/09/07 04:21:02;;;;;;;20.55;18.17;;;11.70;99.90;;;;;;5045898;28;20217;-68
2021/09/07 04:23:29;;;;;;;20.45;18.20;;;11.80;99.90;;;;;;5048064;28;20213;-68
2021/09/07 04:25:57;;;;;;;21.50;19.20;;;11.80;99.90;;;;;;5048306;28;20209;-68
2021/09/07 04:28:24;;;;;;;21.48;19.27;;;11.70;99.90;;;;;;5035333;28;20869;-68
2021/09/07 04:30:51;;;;;;;22.02;18.90;;;11.60;99.90;;;;;;5035657;28;20208;-68
2021/09/07 04:33:19;;;;;;;22.92;19.13;;;11.60;99.90;;;;;;5029400;28;20229;-68
2021/09/07 04:35:46;;;;;;;28.52;19.70;;;11.60;99.90;;;;;;5028853;28;20297;-68
2021/09/07 04:38:13;;;;;;;21.00;18.80;;;11.50;99.90;;;;;;5028618;28;20212;-68
2021/09/07 04:40:39;;;;;;;21.35;18.45;;;11.50;99.90;;;;;;5027952;28;20213;-68
2021/09/07 04:43:06;;;;;;;21.52;19.27;;;11.50;99.90;;;;;;5029223;28;20713;-68
2021/09/07 04:45:33;;;;;;;21.58;19.27;;;11.50;99.90;;;;;;5028880;28;20297;-68
2021/09/07 04:48:00;;;;;;;21.70;19.50;;;11.60;99.90;;;;;;5034877;28;20206;-68
2021/09/07 04:50:29;;;;;;;23.85;21.25;;;11.60;99.90;;;;;;5031075;28;20205;-68
2021/09/07 04:52:56;;;;;;;23.27;20.77;;;11.60;99.90;;;;;;5034821;28;20242;-68
2021/09/07 04:55:23;;;;;;;26.55;20.75;;;11.70;99.90;;;;;;5044208;28;20200;-68
2021/09/07 04:57:50;;;;;;;23.90;21.30;;;11.70;99.90;;;;;;5036283;28;20342;-68
2021/09/07 05:00:18;;;;;;;25.45;20.23;;;11.80;99.90;;;;;;5039895;28;20205;-68
2021/09/07 05:02:48;;;;;;;22.83;20.45;;;11.90;99.90;;;;;;5047180;28;20210;-68
2021/09/07 05:05:14;;;;;;;22.40;20.00;;;11.90;99.90;;;;;;5038480;28;20205;-69
2021/09/07 05:07:43;;;;;;;24.25;19.98;;;11.90;99.90;;;;;;5037248;28;20214;-69
2021/09/07 05:10:12;;;;;;;25.10;20.58;;;11.90;99.90;;;;;;5033643;28;20214;-68
2021/09/07 05:12:39;;;;;;;24.67;19.40;;;11.90;99.90;;;;;;5032780;28;20325;-69
2021/09/07 05:15:07;;;;;;;24.80;19.65;;;12.00;99.90;;;;;;5036969;28;20217;-69
2021/09/07 05:17:34;;;;;;;22.33;20.00;;;12.20;99.90;;;;;;5030519;28;20328;-69
2021/09/07 05:20:01;;;;;;;20.60;18.40;;;12.20;99.90;;;;;;5031883;28;20686;-68
2021/09/07 05:22:29;;;;;;;22.10;19.73;;;12.20;99.90;;;;;;5033524;28;20194;-69
2021/09/07 05:24:58;;;;;;;23.73;20.45;;;12.20;99.90;;;;;;5029114;28;20218;-69
2021/09/07 05:27:24;;;;;;;22.77;17.70;;;12.20;99.90;;;;;;5042083;28;20206;-68
2021/09/07 05:29:51;;;;;;;20.75;17.63;;;12.20;99.90;;;;;;5033806;28;20509;-69
2021/09/07 05:32:21;;;;;;;24.33;19.00;;;12.20;99.90;;;;;;5042778;28;20284;-69
2021/09/07 05:34:48;;;;;;;18.98;17.02;;;12.30;99.90;;;;;;5041595;28;20206;-69
2021/09/07 05:37:15;;;;;;;21.27;18.20;;;12.30;99.90;;;;;;5031082;28;20632;-68
2021/09/07 05:39:42;;;;;;;20.77;17.65;;;12.40;99.90;;;;;;5037640;28;20224;-69
2021/09/07 05:42:10;;;;;;;18.85;16.38;;;12.50;99.90;;;;;;5027538;28;20263;-69
2021/09/07 05:44:36;;;;;;;19.25;17.30;;;12.70;99.90;;;;;;5045288;28;20305;-69
2021/09/07 05:47:05;;;;;;;18.77;16.75;;;12.70;99.90;;;;;;5035660;28;20206;-69
2021/09/07 05:49:32;;;;;;;21.90;17.30;;;12.70;99.90;;;;;;5033745;28;20562;-69
2021/09/07 05:52:00;;;;;;;21.92;16.95;;;12.70;99.90;;;;;;5036974;28;20368;-68
2021/09/07 05:54:30;;;;;;;19.08;17.17;;;12.70;99.90;;;;;;5036070;28;20230;-69
2021/09/07 05:56:58;;;;;;;16.17;14.57;;;12.70;99.90;;;;;;5041447;28;20216;-68
2021/09/07 05:59:26;;;;;;;19.50;17.23;;;12.80;99.90;;;;;;5036149;28;20204;-68
2021/09/07 06:01:53;;;;;;;18.17;16.27;;;12.90;99.90;;;;;;5037959;28;20208;-69
2021/09/07 06:04:20;;;;;;;19.35;17.55;;;12.90;99.90;;;;;;5042295;28;20198;-69
2021/09/07 06:06:47;;;;;;;18.90;17.00;;;12.90;99.90;;;;;;5045761;28;20217;-69
2021/09/07 06:09:13;;;;;;;19.65;16.70;;;12.90;99.90;;;;;;5036705;28;20242;-68
2021/09/07 06:11:40;;;;;;;16.70;14.90;;;13.00;99.90;;;;;;5034434;28;20843;-69
2021/09/07 06:14:07;;;;;;;17.35;15.55;;;13.20;99.90;;;;;;5032291;28;20232;-68
2021/09/07 06:16:35;;;;;;;19.38;16.25;;;13.40;99.90;;;;;;5029967;28;20212;-69
2021/09/07 06:19:02;;;;;;;17.55;15.40;;;13.60;99.90;;;;;;5043470;28;20285;-69
2021/09/07 06:21:30;;;;;;;18.52;16.88;;;13.60;99.90;;;;;;5032990;28;20206;-69
2021/09/07 06:23:59;;;;;;;18.25;16.42;;;13.70;99.90;;;;;;5044229;28;20194;-69
2021/09/07 06:26:27;;;;;;;17.20;15.60;;;13.90;99.90;;;;;;5029863;28;20555;-68
2021/09/07 06:28:53;;;;;;;18.17;16.35;;;13.90;99.90;;;;;;5041596;28;20689;-69
2021/09/07 06:31:20;;;;;;;17.73;15.93;;;13.80;99.90;;;;;;5035998;28;20234;-68
2021/09/07 06:33:48;;;;;;;18.35;14.98;;;13.70;99.90;;;;;;5032577;28;20948;-69
2021/09/07 06:36:16;;;;;;;16.23;14.60;;;13.80;99.90;;;;;;5037857;28;20682;-69
2021/09/07 06:38:43;;;;;;;17.40;15.70;;;13.90;99.90;;;;;;5027167;28;20305;-69
2021/09/07 06:41:10;;;;;;;17.98;16.27;;;14.20;99.90;;;;;;5034217;28;20205;-69
2021/09/07 06:43:37;;;;;;;19.38;17.50;;;14.10;99.90;;;;;;5035189;28;20198;-69
2021/09/07 06:46:04;;;;;;;19.45;17.00;;;14.10;99.90;;;;;;5037557;28;20308;-68
2021/09/07 06:48:31;;;;;;;18.65;16.00;;;14.00;99.90;;;;;;5041512;28;20202;-69
2021/09/07 06:51:00;;;;;;;17.73;16.02;;;13.80;99.90;;;;;;5041449;28;20198;-68
2021/09/07 06:53:27;;;;;;;19.00;17.10;;;14.00;99.90;;;;;;5042437;28;20653;-68
2021/09/07 06:55:54;;;;;;;19.13;17.13;;;14.10;99.90;;;;;;5034624;28;20837;-68
2021/09/07 06:58:21;;;;;;;18.58;16.67;;;14.40;99.90;;;;;;5037392;28;20379;-68
2021/09/07 07:00:47;;;;;;;18.63;16.80;;;14.50;99.90;;;;;;5035902;28;20205;-69
2021/09/07 07:03:14;;;;;;;19.50;17.50;;;14.60;99.90;;;;;;5041750;28;20208;-69
2021/09/07 07:05:41;;;;;;;18.63;16.75;;;14.70;99.90;;;;;;5034751;28;20305;-69
2021/09/07 07:08:10;;;;;;;19.02;17.13;;;14.90;99.90;;;;;;5031554;28;20666;-69
2021/09/07 07:10:36;;;;;;;19.05;16.80;;;15.00;99.90;;;;;;5038024;28;20241;-69
2021/09/07 07:13:04;;;;;;;18.63;16.65;;;15.40;99.90;;;;;;5043663;28;20252;-69
2021/09/07 07:15:31;;;;;;;17.50;15.80;;;15.60;99.90;;;;;;5036891;28;20209;-68
2021/09/07 07:17:57;;;;;;;18.90;16.13;;;16.30;99.90;;;;;;5042763;28;20300;-68
2021/09/07 07:20:24;;;;;;;16.50;14.80;;;16.70;99.90;;;;;;5041966;28;20212;-69
2021/09/07 07:22:51;;;;;;;16.40;14.52;;;17.30;99.90;;;;;;5036743;28;20493;-69
2021/09/07 07:25:19;;;;;;;20.05;14.50;;;17.60;99.90;;;;;;5044383;28;20205;-69
2021/09/07 07:27:46;;;;;;;24.42;15.00;;;18.30;99.90;;;;;;5038238;28;20190;-69
2021/09/07 07:30:14;;;;;;;14.50;13.00;;;19.30;99.90;;;;;;5032111;28;20202;-69
2021/09/07 07:32:41;;;;;;;15.13;13.73;;;19.60;98.70;;;;;;5038553;28;20632;-69
2021/09/07 07:35:08;;;;;;;18.17;15.20;;;20.10;97.90;;;;;;5045125;28;20787;-69
2021/09/07 07:37:35;;;;;;;16.80;15.20;;;19.70;97.60;;;;;;5040967;28;20644;-69
2021/09/07 07:40:03;;;;;;;14.43;13.03;;;19.70;97.50;;;;;;5038529;28;20728;-69
2021/09/07 07:42:31;;;;;;;16.30;14.63;;;19.60;97.30;;;;;;5036919;28;20632;-69
2021/09/07 07:44:58;;;;;;;16.50;14.90;;;19.30;98.10;;;;;;5041928;28;21358;-68
2021/09/07 07:47:24;;;;;;;15.07;13.57;;;19.10;98.20;;;;;;5036093;28;20636;-69
2021/09/07 07:49:51;;;;;;;16.80;15.20;;;19.10;98.40;;;;;;5029099;28;20671;-69
2021/09/07 07:52:18;;;;;;;14.60;13.30;;;18.90;99.20;;;;;;5044054;28;20642;-69
2021/09/07 07:54:46;;;;;;;14.67;13.17;;;19.00;98.80;;;;;;5049119;28;20688;-69
2021/09/07 07:57:15;;;;;;;15.67;14.27;;;19.10;98.50;;;;;;5038349;28;20634;-69
2021/09/07 07:59:43;;;;;;;16.20;14.60;;;19.30;98.40;;;;;;5039298;28;20629;-69
2021/09/07 08:02:10;;;;;;;17.53;14.30;;;19.30;98.20;;;;;;5044912;28;20642;-69
2021/09/07 08:04:37;;;;;;;16.20;14.57;;;19.20;98.50;;;;;;5042204;28;20732;-69
2021/09/07 08:07:04;;;;;;;16.40;14.83;;;18.80;99.00;;;;;;5043128;28;20660;-69
2021/09/07 08:09:31;;;;;;;21.25;16.25;;;18.80;99.30;;;;;;5037240;28;21205;-69
2021/09/07 08:11:58;;;;;;;16.13;14.63;;;18.60;99.60;;;;;;5038713;28;20261;-69
2021/09/07 08:14:25;;;;;;;15.47;14.07;;;18.90;99.80;;;;;;5047452;28;20686;-68
2021/09/07 08:16:54;;;;;;;16.55;14.75;;;19.10;99.30;;;;;;5044279;28;20651;-68
2021/09/07 08:19:21;;;;;;;16.93;15.23;;;19.20;98.60;;;;;;5045130;28;20582;-69
2021/09/07 08:21:48;;;;;;;16.23;14.63;;;19.40;98.20;;;;;;5047459;28;20642;-69
2021/09/07 08:24:15;;;;;;;16.37;14.80;;;19.50;98.20;;;;;;5046531;28;20739;-69
2021/09/07 08:26:41;;;;;;;17.57;15.20;;;19.70;97.40;;;;;;5040810;28;20625;-69
2021/09/07 08:29:08;;;;;;;15.53;13.80;;;19.50;97.70;;;;;;5037099;28;20625;-69
2021/09/07 08:31:35;;;;;;;13.43;12.07;;;19.60;97.70;;;;;;5031991;28;20738;-69
2021/09/07 08:34:03;;;;;;;15.80;13.77;;;19.70;98.00;;;;;;5040555;28;20681;-69
2021/09/07 08:36:30;;;;;;;14.53;13.03;;;19.60;97.80;;;;;;5045783;28;20668;-70
2021/09/07 08:38:57;;;;;;;13.40;12.20;;;19.70;97.70;;;;;;5038185;28;21180;-69
2021/09/07 08:41:24;;;;;;;17.83;13.33;;;19.90;98.20;;;;;;5046239;28;20626;-69
2021/09/07 08:43:51;;;;;;;14.20;12.80;;;20.10;97.60;;;;;;5042107;28;20633;-69
2021/09/07 08:46:18;;;;;;;15.77;14.27;;;20.40;98.00;;;;;;5035269;28;20621;-69
2021/09/07 08:48:46;;;;;;;13.97;12.53;;;20.50;97.50;;;;;;5040120;28;21168;-69
2021/09/07 08:51:16;;;;;;;14.97;13.30;;;20.50;97.20;;;;;;5038333;28;21259;-68
2021/09/07 08:53:43;;;;;;;17.23;13.37;;;20.40;97.10;;;;;;5040580;28;20770;-69
2021/09/07 08:56:11;;;;;;;16.60;15.00;;;20.50;97.20;;;;;;5038333;28;20667;-69
2021/09/07 08:58:39;;;;;;;16.97;13.77;;;20.40;97.80;;;;;;5043498;28;21547;-69
2021/09/07 09:01:11;;;;;;;16.87;15.07;;;20.40;97.80;;;;;;5044809;28;20632;-69
2021/09/07 09:03:41;;;;;;;23.60;21.20;;;20.20;97.70;;;;;;5035116;28;20625;-69
2021/09/07 09:06:07;;;;;;;16.17;14.47;;;20.30;98.50;;;;;;5032094;28;21197;-69
2021/09/07 09:08:36;;;;;;;16.50;14.80;;;20.60;98.10;;;;;;5041248;28;21198;-69
2021/09/07 09:11:06;;;;;;;14.73;13.10;;;20.90;97.40;;;;;;5027841;28;20637;-70
2021/09/07 09:13:44;;;;;;;13.60;12.40;;;21.60;96.40;;;;;;5036275;28;20634;-69
2021/09/07 09:16:12;;;;;;;14.30;13.00;;;22.30;94.80;;;;;;5033907;28;20634;-69
2021/09/07 09:18:42;;;;;;;12.83;11.63;;;22.40;94.20;;;;;;5038263;28;20736;-69
2021/09/07 09:21:23;;;;;;;13.60;12.40;;;22.40;94.20;;;;;;5038085;28;20652;-68
2021/09/07 09:24:12;;;;;;;14.27;12.97;;;23.00;94.00;;;;;;5035996;28;20635;-69
2021/09/07 09:26:51;;;;;;;13.90;12.50;;;23.10;92.80;;;;;;5030052;28;21393;-69
2021/09/07 09:29:21;;;;;;;11.73;10.70;;;23.30;92.30;;;;;;5037691;28;20628;-69
2021/09/07 09:31:52;;;;;;;11.77;10.77;;;23.70;92.50;;;;;;5028698;28;20712;-69
2021/09/07 09:34:19;;;;;;;12.90;11.70;;;24.50;90.80;;;;;;5042310;28;21335;-70
2021/09/07 09:36:59;;;;;;;13.23;11.77;;;24.90;90.50;;;;;;5038058;28;20626;-70
2021/09/07 09:39:42;;;;;;;13.53;12.27;;;25.40;89.00;;;;;;5032259;28;20633;-69
2021/09/07 09:42:10;;;;;;;12.40;11.40;;;26.30;83.80;;;;;;5039978;28;21029;-69
2021/09/07 09:44:38;;;;;;;12.47;11.37;;;26.50;85.70;;;;;;5040244;28;20664;-69
2021/09/07 09:47:05;;;;;;;12.23;11.13;;;26.70;82.00;;;;;;5034810;28;20660;-67
2021/09/07 09:49:33;;;;;;;12.07;10.97;;;26.30;84.20;;;;;;5043622;28;20671;-67
2021/09/07 09:52:03;;;;;;;11.70;10.73;;;26.90;81.80;;;;;;5039333;28;20735;-67
2021/09/07 09:54:32;;;;;;;12.77;11.67;;;27.50;80.50;;;;;;5041428;28;20681;-68
2021/09/07 09:57:02;;;;;;;12.30;11.10;;;26.70;82.50;;;;;;5032180;28;20636;-67
2021/09/07 09:59:29;;;;;;;11.63;10.63;;;27.10;80.10;;;;;;5041628;28;20670;-67
2021/09/07 10:01:57;;;;;;;10.87;9.97;;;27.10;80.40;;;;;;5029536;28;20764;-67
2021/09/07 10:04:25;;;;;;;11.63;10.53;;;27.60;78.40;;;;;;5039958;28;20736;-69
2021/09/07 10:06:53;;;;;;;11.07;9.97;;;27.40;78.80;;;;;;5041227;28;20687;-69
2021/09/07 10:09:22;;;;;;;10.40;9.50;;;27.70;74.90;;;;;;5037832;28;20637;-69
2021/09/07 10:11:52;;;;;;;10.73;9.63;;;27.80;70.30;;;;;;5040026;28;20661;-69
2021/09/07 10:14:25;;;;;;;10.73;9.80;;;27.00;74.20;;;;;;5039381;28;20691;-69
2021/09/07 10:17:29;;;;;;;10.40;9.60;;;27.30;72.00;;;;;;5048265;28;20738;-69
2021/09/07 10:20:03;;;;;;;9.97;9.10;;;28.00;71.70;;;;;;5039220;28;20640;-69
2021/09/07 10:25:54;;;;;;;8.73;8.13;;;27.60;71.70;;;;;;5034680;28;21028;-69
2021/09/07 10:28:57;;;;;;;11.00;10.10;;;27.60;70.40;;;;;;5039051;28;20622;-69
2021/09/07 10:31:24;;;;;;;10.23;9.43;;;28.30;65.60;;;;;;5033554;28;21178;-69
2021/09/07 10:34:00;;;;;;;9.87;8.60;;;28.20;65.20;;;;;;5032423;28;20725;-69
2021/09/07 10:36:28;;;;;;;10.43;9.60;;;27.90;65.80;;;;;;5031679;28;20638;-69
2021/09/07 10:38:57;;;;;;;10.47;9.17;;;27.60;71.60;;;;;;5026888;28;20654;-69
2021/09/07 10:41:47;;;;;;;10.13;9.33;;;27.50;70.00;;;;;;5036852;28;20728;-69
2021/09/07 10:44:32;;;;;;;10.50;9.67;;;27.60;67.40;;;;;;5042398;28;21202;-70
2021/09/07 10:47:08;;;;;;;10.30;9.50;;;27.90;65.30;;;;;;5036582;28;21219;-69
2021/09/07 10:49:49;;;;;;;10.70;9.90;;;28.00;68.50;;;;;;5037397;28;20668;-69
2021/09/07 10:52:18;;;;;;;10.13;9.33;;;27.80;67.90;;;;;;5040089;28;20631;-69
2021/09/07 10:54:56;;;;;;;9.70;9.00;;;27.50;72.40;;;;;;5037745;28;20687;-69
2021/09/07 10:58:02;;;;;;;10.67;9.80;;;27.50;69.50;;;;;;5033320;28;21231;-69
2021/09/07 11:00:35;;;;;;;10.00;9.10;;;27.40;70.40;;;;;;5045007;28;20946;-69
2021/09/07 11:03:03;;;;;;;10.60;9.80;;;26.90;69.60;;;;;;5031527;28;20648;-69
2021/09/07 11:05:44;;;;;;;10.43;9.53;;;26.50;71.60;;;;;;5033576;28;20612;-69
2021/09/07 11:08:12;;;;;;;10.07;9.17;;;26.30;72.70;;;;;;5030543;28;20745;-69
2021/09/07 11:10:40;;;;;;;10.50;9.60;;;26.00;72.80;;;;;;5030940;28;20712;-70
2021/09/07 11:13:09;;;;;;;11.30;10.20;;;26.10;74.50;;;;;;5031456;28;20618;-70
2021/09/07 11:15:38;;;;;;;10.63;9.70;;;25.80;72.10;;;;;;5037985;28;20665;-69
2021/09/07 11:18:07;;;;;;;10.27;9.47;;;25.50;71.70;;;;;;5030856;28;20633;-70
2021/09/07 11:20:36;;;;;;;10.33;9.33;;;25.80;75.70;;;;;;5035511;28;20706;-70
2021/09/07 11:23:13;;;;;;;10.30;9.40;;;25.90;70.70;;;;;;5036731;28;20724;-70
2021/09/07 11:25:41;;;;;;;9.97;9.07;;;25.70;71.80;;;;;;5043734;28;20660;-70
2021/09/07 11:28:10;;;;;;;9.77;8.70;;;25.60;71.20;;;;;;5039101;28;20624;-69
2021/09/07 11:30:38;;;;;;;9.90;9.10;;;25.30;73.00;;;;;;5039402;28;21196;-70
2021/09/07 11:33:08;;;;;;;10.40;9.50;;;25.30;71.60;;;;;;5042970;28;20730;-70
2021/09/07 11:35:41;;;;;;;9.60;8.70;;;25.50;73.50;;;;;;5039744;28;20679;-70
2021/09/07 11:38:11;;;;;;;9.80;9.00;;;25.50;73.10;;;;;;5039789;28;20625;-70
2021/09/07 11:40:45;;;;;;;9.87;9.03;;;25.60;74.60;;;;;;5036524;28;20624;-69
2021/09/07 11:43:12;;;;;;;10.13;9.17;;;25.60;74.70;;;;;;5046560;28;20738;-70
2021/09/07 11:45:40;;;;;;;9.10;8.40;;;25.70;71.10;;;;;;5043704;28;20628;-70
2021/09/07 11:48:08;;;;;;;9.70;8.90;;;25.70;75.10;;;;;;5046612;28;20730;-70
2021/09/07 11:50:37;;;;;;;10.50;8.97;;;25.70;70.00;;;;;;5049380;28;20640;-69
2021/09/07 11:53:06;;;;;;;9.83;9.00;;;25.60;68.40;;;;;;5040769;28;20638;-69
2021/09/07 11:55:50;;;;;;;9.63;8.83;;;25.80;72.60;;;;;;5039187;28;20675;-70
2021/09/07 11:58:35;;;;;;;10.00;9.10;;;26.00;67.00;;;;;;5037672;28;20644;-70
2021/09/07 12:01:08;;;;;;;9.27;8.57;;;25.90;69.00;;;;;;5041558;28;20636;-70
2021/09/07 12:03:47;;;;;;;8.87;8.17;;;26.00;68.10;;;;;;5040076;28;20632;-70
2021/09/07 12:06:16;;;;;;;9.87;8.97;;;25.80;66.00;;;;;;5035820;28;20677;-71
2021/09/07 12:08:45;;;;;;;9.50;8.70;;;25.90;68.80;;;;;;5041588;28;20623;-71
2021/09/07 12:11:26;;;;;;;9.20;8.30;;;25.70;68.90;;;;;;5039987;28;20629;-70
2021/09/07 12:14:05;;;;;;;10.57;9.57;;;25.70;68.00;;;;;;5041773;28;20626;-70
2021/09/07 12:16:32;;;;;;;8.70;8.00;;;25.70;69.00;;;;;;5037549;28;20683;-70
2021/09/07 12:18:59;;;;;;;9.87;8.97;;;25.80;69.00;;;;;;5032284;28;21473;-70
2021/09/07 12:21:27;;;;;;;9.80;9.00;;;25.90;71.40;;;;;;5039186;28;20643;-70
2021/09/07 12:23:56;;;;;;;10.20;9.40;;;26.00;68.30;;;;;;5047098;28;21292;-70
2021/09/07 12:26:40;;;;;;;11.00;10.10;;;25.90;68.70;;;;;;5040865;28;20641;-70
2021/09/07 12:29:15;;;;;;;10.03;9.23;;;25.80;71.50;;;;;;5038627;28;20732;-70
2021/09/07 12:31:42;;;;;;;9.70;8.73;;;25.60;71.80;;;;;;5041809;28;20632;-70
2021/09/07 12:34:09;;;;;;;10.20;9.40;;;26.00;70.40;;;;;;5043742;28;21047;-70
2021/09/07 12:36:49;;;;;;;10.30;9.40;;;26.10;69.90;;;;;;5038944;28;20768;-70
2021/09/07 12:39:16;;;;;;;10.27;9.40;;;25.90;70.20;;;;;;5045946;28;20636;-70
2021/09/07 12:41:45;;;;;;;9.67;8.77;;;26.00;70.60;;;;;;5036807;28;20624;-70